createdAt,value
2018-02-10T00:01:35.433Z,44.00
2018-02-10T00:04:03.204Z,44.10
2018-02-10T00:06:30.664Z,44.20
2018-02-10T00:08:58.469Z,44.20
2018-02-10T00:11:25.928Z,44.30
2018-02-10T00:13:53.641Z,44.30
2018-02-10T00:16:21.218Z,44.30
2018-02-10T00:18:48.886Z,44.40
2018-02-10T00:21:16.393Z,44.50
2018-02-10T00:23:43.997Z,44.50
2018-02-10T00:26:11.452Z,44.60
2018-02-10T00:28:38.913Z,44.70
2018-02-10T00:31:07.257Z,44.70
2018-02-10T00:33:34.728Z,44.70
2018-02-10T00:36:02.296Z,44.80
2018-02-10T00:38:30.068Z,44.90
2018-02-10T00:40:57.549Z,44.90
2018-02-10T00:43:25.235Z,44.80
2018-02-10T00:45:52.754Z,44.80
2018-02-10T00:48:20.219Z,45.00
2018-02-10T00:50:47.972Z,45.00
2018-02-10T00:53:15.433Z,45.10
2018-02-10T00:55:42.908Z,45.10
2018-02-10T00:58:10.661Z,45.20
2018-02-10T01:00:38.500Z,45.20
2018-02-10T01:03:06.065Z,45.30
2018-02-10T01:05:33.520Z,45.30
2018-02-10T01:08:01.097Z,45.30
2018-02-10T01:10:28.733Z,45.40
2018-02-10T01:12:56.205Z,45.40
2018-02-10T01:15:23.680Z,45.40
2018-02-10T01:17:51.233Z,45.40
2018-02-10T01:20:19.004Z,45.50
2018-02-10T01:22:46.778Z,45.50
2018-02-10T01:25:14.532Z,45.50
2018-02-10T01:27:42.164Z,45.60
2018-02-10T01:30:09.624Z,45.70
2018-02-10T01:32:37.126Z,45.70
2018-02-10T01:35:05.132Z,45.70
2018-02-10T01:37:32.614Z,45.80
2018-02-10T01:40:00.210Z,45.80
2018-02-10T01:42:29.371Z,45.80
2018-02-10T01:44:56.908Z,45.80
2018-02-10T01:47:24.591Z,45.80
2018-02-10T01:50:03.933Z,45.90
2018-02-10T01:52:31.612Z,45.90
2018-02-10T01:54:59.082Z,45.90
2018-02-10T01:57:26.850Z,46.00
2018-02-10T01:59:54.624Z,46.00
2018-02-10T02:02:22.080Z,46.00
2018-02-10T02:04:49.552Z,46.10
2018-02-10T02:07:17.044Z,46.10
2018-02-10T02:09:44.548Z,46.10
2018-02-10T02:12:12.220Z,46.10
2018-02-10T02:14:39.690Z,46.10
2018-02-10T02:17:07.428Z,46.20
2018-02-10T02:19:34.894Z,46.20
2018-02-10T02:22:02.523Z,46.20
2018-02-10T02:24:30.124Z,46.20
2018-02-10T02:26:57.586Z,46.20
2018-02-10T02:29:25.349Z,46.20
2018-02-10T02:31:52.830Z,46.90
2018-02-10T02:34:20.304Z,46.30
2018-02-10T02:36:47.765Z,46.20
2018-02-10T02:39:15.368Z,46.40
2018-02-10T02:41:42.857Z,46.40
2018-02-10T02:44:10.332Z,46.40
2018-02-10T02:46:37.785Z,46.40
2018-02-10T02:49:05.310Z,46.40
2018-02-10T02:51:32.981Z,46.40
2018-02-10T02:54:00.441Z,46.50
2018-02-10T02:56:27.990Z,46.50
2018-02-10T02:58:55.761Z,46.50
2018-02-10T03:01:23.249Z,46.50
2018-02-10T03:03:50.972Z,46.60
2018-02-10T03:06:18.433Z,46.60
2018-02-10T03:08:45.900Z,46.60
2018-02-10T03:11:13.376Z,46.70
2018-02-10T03:13:40.843Z,46.60
2018-02-10T03:16:08.310Z,46.70
2018-02-10T03:18:35.960Z,46.60
2018-02-10T03:21:03.460Z,46.70
2018-02-10T03:23:30.929Z,46.70
2018-02-10T03:25:58.397Z,46.70
2018-02-10T03:28:26.173Z,46.70
2018-02-10T03:30:53.800Z,46.70
2018-02-10T03:33:21.269Z,46.70
2018-02-10T03:35:48.853Z,46.70
2018-02-10T03:38:16.633Z,46.70
2018-02-10T03:40:44.405Z,46.70
2018-02-10T03:43:12.318Z,46.70
2018-02-10T03:45:39.912Z,46.70
2018-02-10T03:48:07.388Z,46.70
2018-02-10T03:50:35.139Z,46.80
2018-02-10T03:53:02.896Z,46.80
2018-02-10T03:55:30.537Z,46.80
2018-02-10T03:57:58.030Z,46.80
2018-02-10T04:00:25.477Z,46.80
2018-02-10T04:02:52.944Z,46.90
2018-02-10T04:05:20.423Z,46.90
2018-02-10T04:07:47.874Z,46.90
2018-02-10T04:10:15.421Z,46.90
2018-02-10T04:12:42.888Z,46.80
2018-02-10T04:15:10.544Z,46.90
2018-02-10T04:17:38.009Z,46.90
2018-02-10T04:20:05.471Z,47.10
2018-02-10T04:22:32.934Z,47.00
2018-02-10T04:25:01.295Z,47.00
2018-02-10T04:27:28.814Z,47.00
2018-02-10T04:29:56.548Z,47.00
2018-02-10T04:32:24.073Z,47.10
2018-02-10T04:34:51.845Z,47.10
2018-02-10T04:37:19.304Z,47.10
2018-02-10T04:39:46.768Z,47.10
2018-02-10T04:42:14.561Z,47.10
2018-02-10T04:44:42.284Z,47.10
2018-02-10T04:47:09.744Z,47.10
2018-02-10T04:49:37.209Z,47.10
2018-02-10T04:52:04.986Z,47.10
2018-02-10T04:54:32.741Z,47.20
2018-02-10T04:57:00.369Z,47.20
2018-02-10T04:59:27.965Z,47.20
2018-02-10T05:01:55.416Z,47.20
2018-02-10T05:04:22.901Z,47.20
2018-02-10T05:06:50.568Z,47.20
2018-02-10T05:09:18.025Z,47.20
2018-02-10T05:11:45.554Z,47.20
2018-02-10T05:14:13.021Z,47.20
2018-02-10T05:16:40.479Z,47.30
2018-02-10T05:19:07.944Z,47.20
2018-02-10T05:21:35.559Z,47.20
2018-02-10T05:24:03.037Z,47.20
2018-02-10T05:26:30.577Z,47.20
2018-02-10T05:28:58.029Z,47.20
2018-02-10T05:31:25.536Z,47.20
2018-02-10T05:33:53.288Z,47.20
2018-02-10T05:36:20.756Z,47.30
2018-02-10T05:38:48.313Z,47.30
2018-02-10T05:41:15.773Z,47.30
2018-02-10T05:43:43.417Z,47.30
2018-02-10T05:46:11.200Z,47.40
2018-02-10T05:48:38.964Z,47.40
2018-02-10T05:51:06.433Z,47.40
2018-02-10T05:53:34.185Z,47.40
2018-02-10T05:56:01.674Z,47.40
2018-02-10T05:58:29.269Z,47.30
2018-02-10T06:00:56.826Z,47.30
2018-02-10T06:03:24.341Z,47.40
2018-02-10T06:05:51.814Z,47.40
2018-02-10T06:08:19.422Z,47.40
2018-02-10T06:10:47.002Z,47.40
2018-02-10T06:13:14.425Z,47.50
2018-02-10T06:15:41.959Z,47.50
2018-02-10T06:18:09.417Z,47.20
2018-02-10T06:20:36.957Z,46.70
2018-02-10T06:23:04.768Z,45.60
2018-02-10T06:25:32.258Z,46.10
2018-02-10T06:27:59.709Z,46.30
2018-02-10T06:30:27.168Z,46.30
2018-02-10T06:32:54.745Z,46.30
2018-02-10T06:35:22.517Z,46.60
2018-02-10T06:37:50.270Z,48.00
2018-02-10T06:40:18.040Z,49.90
2018-02-10T06:42:45.804Z,48.50
2018-02-10T06:45:13.426Z,51.50
2018-02-10T06:47:41.021Z,50.70
2018-02-10T06:50:08.477Z,48.40
2018-02-10T06:52:36.311Z,46.40
2018-02-10T06:55:04.401Z,46.60
2018-02-10T06:57:31.888Z,46.60
2018-02-10T07:00:00.141Z,46.50
2018-02-10T07:02:27.594Z,46.50
2018-02-10T07:04:55.246Z,46.50
2018-02-10T07:07:22.716Z,46.50
2018-02-10T07:09:50.303Z,46.50
2018-02-10T07:12:17.814Z,46.50
2018-02-10T07:14:45.525Z,46.70
2018-02-10T07:17:13.891Z,46.70
2018-02-10T07:19:41.349Z,49.70
2018-02-10T07:22:09.125Z,49.00
2018-02-10T07:24:37.462Z,47.90
2018-02-10T07:27:04.918Z,46.00
2018-02-10T07:29:32.377Z,44.70
2018-02-10T07:32:01.035Z,45.30
2018-02-10T07:34:28.509Z,46.50
2018-02-10T07:36:56.156Z,46.20
2018-02-10T07:39:24.382Z,45.90
2018-02-10T07:41:52.166Z,46.10
2018-02-10T07:44:20.098Z,46.40
2018-02-10T07:46:47.599Z,46.30
2018-02-10T07:49:15.077Z,46.40
